Time;durP1;ratioP1;P1;durP2;ratioP2;P2;SDS_P1;SDS_P2;PMS_P1;PMS_P2;Temp;Humidity;BMP_temperature;BMP_pressure;BME280_temperature;BME280_humidity;BME280_pressure;Samples;Min_cycle;Max_cycle;Signal;HPM_P1;HPM_P2
2021/08/26 00:05:50;0.00;0.00;0.62;0.00;0.00;0.62;2.70;1.20;;;25.30;38.90;;;;;;2253331;61;20419;-60
2021/08/26 00:08:36;0.00;0.00;0.62;0.00;0.00;0.62;1.80;1.20;;;25.30;38.90;;;;;;2253001;61;20460;-65
2021/08/26 00:11:23;0.00;0.00;0.62;0.00;0.00;0.62;2.90;1.30;;;25.40;39.00;;;;;;2253037;61;20351;-64
2021/08/26 00:14:08;0.00;0.00;0.62;0.00;0.00;0.62;3.07;1.20;;;25.40;39.00;;;;;;2253259;61;20783;-65
2021/08/26 00:16:53;0.00;0.00;0.62;0.00;0.00;0.62;2.97;1.50;;;25.40;38.90;;;;;;2252843;61;20363;-65
2021/08/26 00:19:38;0.00;0.00;0.62;0.00;0.00;0.62;3.20;1.30;;;25.40;38.90;;;;;;2253270;61;20352;-66
2021/08/26 00:22:23;0.00;0.00;0.62;0.00;0.00;0.62;2.80;1.30;;;25.40;38.80;;;;;;2253514;61;20478;-65
2021/08/26 00:25:09;0.00;0.00;0.62;0.00;0.00;0.62;2.07;1.10;;;25.40;38.80;;;;;;2253519;61;20348;-63
2021/08/26 00:27:54;0.00;0.00;0.62;0.00;0.00;0.62;2.63;1.50;;;25.40;38.70;;;;;;2254207;61;20387;-64
2021/08/26 00:30:38;0.00;0.00;0.62;0.00;0.00;0.62;3.20;1.40;;;25.40;38.70;;;;;;2253671;61;20564;-65
2021/08/26 00:33:23;0.00;0.00;0.62;0.00;0.00;0.62;2.93;1.50;;;25.40;38.70;;;;;;2253325;61;20408;-65
2021/08/26 00:36:08;0.00;0.00;0.62;0.00;0.00;0.62;1.93;1.40;;;25.40;38.60;;;;;;2253922;61;20785;-63
2021/08/26 00:38:52;0.00;0.00;0.62;0.00;0.00;0.62;4.20;2.43;;;25.40;38.60;;;;;;2253482;61;20523;-66
2021/08/26 00:41:40;0.00;0.00;0.62;0.00;0.00;0.62;3.53;2.00;;;25.40;38.60;;;;;;2253813;61;20368;-64
2021/08/26 00:44:24;0.00;0.00;0.62;0.00;0.00;0.62;4.23;1.73;;;25.50;38.60;;;;;;2254086;61;20375;-64
2021/08/26 00:47:09;0.00;0.00;0.62;0.00;0.00;0.62;2.13;1.43;;;25.50;38.60;;;;;;2253538;61;20380;-64
2021/08/26 00:49:55;0.00;0.00;0.62;0.00;0.00;0.62;2.67;1.50;;;25.50;38.50;;;;;;2254035;61;20588;-66
2021/08/26 00:52:40;0.00;0.00;0.62;0.00;0.00;0.62;3.07;1.70;;;25.50;38.40;;;;;;2253622;61;20367;-64
2021/08/26 00:55:25;0.00;0.00;0.62;0.00;0.00;0.62;2.13;1.40;;;25.50;38.40;;;;;;2253667;61;20399;-64
2021/08/26 00:58:12;0.00;0.00;0.62;0.00;0.00;0.62;4.67;1.83;;;25.50;38.40;;;;;;2254000;61;20375;-63
2021/08/26 01:01:02;0.00;0.00;0.62;0.00;0.00;0.62;2.27;1.50;;;25.50;38.40;;;;;;2253420;61;20371;-65
2021/08/26 01:04:01;0.00;0.00;0.62;0.00;0.00;0.62;2.77;1.50;;;25.50;38.40;;;;;;2253357;61;20415;-63
2021/08/26 01:06:56;0.00;0.00;0.62;0.00;0.00;0.62;4.20;1.63;;;25.50;38.30;;;;;;2253540;61;20379;-63
2021/08/26 01:09:43;0.00;0.00;0.62;0.00;0.00;0.62;5.10;1.97;;;25.50;38.30;;;;;;2253586;61;20379;-66
2021/08/26 01:12:30;0.00;0.00;0.62;0.00;0.00;0.62;2.23;1.63;;;25.50;38.20;;;;;;2253814;61;20699;-64
2021/08/26 01:15:16;0.00;0.00;0.62;0.00;0.00;0.62;3.10;1.80;;;25.60;38.20;;;;;;2253433;61;20779;-66
2021/08/26 01:18:00;0.00;0.00;0.62;0.00;0.00;0.62;2.20;1.83;;;25.60;38.20;;;;;;2253614;61;20748;-64
2021/08/26 01:20:44;0.00;0.00;0.62;0.00;0.00;0.62;3.60;1.90;;;25.60;38.20;;;;;;2253952;61;20367;-65
2021/08/26 01:23:32;0.00;0.00;0.62;0.00;0.00;0.62;3.50;2.27;;;25.60;38.20;;;;;;2253091;61;20712;-66
2021/08/26 01:26:22;0.00;0.00;0.62;0.00;0.00;0.62;3.40;1.83;;;25.60;38.10;;;;;;2253608;61;20356;-66
2021/08/26 01:29:07;0.00;0.00;0.62;0.00;0.00;0.62;4.30;1.63;;;25.60;38.10;;;;;;2253551;61;20379;-63
2021/08/26 01:31:52;0.00;0.00;0.62;0.00;0.00;0.62;2.10;1.57;;;25.60;38.10;;;;;;2253478;61;21167;-64
2021/08/26 01:34:36;0.00;0.00;0.62;0.00;0.00;0.62;2.60;1.57;;;25.60;38.00;;;;;;2253749;61;20460;-63
2021/08/26 01:37:23;0.00;0.00;0.62;0.00;0.00;0.62;4.30;2.30;;;25.60;38.00;;;;;;2253369;61;20380;-63
2021/08/26 01:40:09;0.00;0.00;0.62;0.00;0.00;0.62;5.03;2.10;;;25.60;38.00;;;;;;2253581;61;20583;-64
2021/08/26 01:42:55;0.00;0.00;0.62;0.00;0.00;0.62;3.83;1.70;;;25.70;38.00;;;;;;2253976;61;20374;-64
2021/08/26 01:45:43;0.00;0.00;0.62;0.00;0.00;0.62;3.27;1.87;;;25.60;37.90;;;;;;2253359;61;20348;-62
2021/08/26 01:48:27;0.00;0.00;0.62;0.00;0.00;0.62;4.60;2.67;;;25.60;37.90;;;;;;2253576;61;20384;-63
2021/08/26 01:51:12;0.00;0.00;0.62;0.00;0.00;0.62;3.10;1.70;;;25.70;38.00;;;;;;2253527;61;20399;-63
2021/08/26 01:53:56;0.00;0.00;0.62;0.00;0.00;0.62;3.03;1.77;;;25.70;37.90;;;;;;2253262;61;20632;-65
2021/08/26 01:56:42;0.00;0.00;0.62;0.00;0.00;0.62;4.20;1.90;;;25.60;37.80;;;;;;2253449;61;20360;-63
2021/08/26 01:59:27;0.00;0.00;0.62;0.00;0.00;0.62;4.03;2.10;;;25.70;37.90;;;;;;2253377;61;20383;-65
2021/08/26 02:02:12;0.00;0.00;0.62;0.00;0.00;0.62;5.03;2.07;;;25.70;37.90;;;;;;2253525;61;20363;-64
2021/08/26 02:04:56;0.00;0.00;0.62;0.00;0.00;0.62;6.67;2.77;;;25.70;37.80;;;;;;2253789;61;20783;-64
2021/08/26 02:07:44;0.00;0.00;0.62;0.00;0.00;0.62;4.00;1.93;;;25.70;37.80;;;;;;2253257;61;20386;-64
2021/08/26 02:10:29;0.00;0.00;0.62;0.00;0.00;0.62;3.50;2.00;;;25.70;37.80;;;;;;2253536;61;20379;-62
2021/08/26 02:13:14;0.00;0.00;0.62;0.00;0.00;0.62;4.27;1.97;;;25.70;37.70;;;;;;2253635;61;20411;-64
2021/08/26 02:15:59;0.00;0.00;0.62;0.00;0.00;0.62;3.20;1.73;;;25.70;37.70;;;;;;2253296;61;20383;-66
2021/08/26 02:18:44;0.00;0.00;0.62;0.00;0.00;0.62;3.97;2.17;;;25.70;37.70;;;;;;2253720;61;20863;-64
2021/08/26 02:21:29;0.00;0.00;0.62;0.00;0.00;0.62;8.13;3.17;;;25.70;37.70;;;;;;2253536;61;20367;-63
2021/08/26 02:24:14;0.00;0.00;0.62;0.00;0.00;0.62;4.47;2.20;;;25.70;37.70;;;;;;2253459;61;20646;-65
2021/08/26 02:26:58;0.00;0.00;0.62;0.00;0.00;0.62;3.77;2.33;;;25.70;37.60;;;;;;2253643;61;20363;-62
2021/08/26 02:29:43;0.00;0.00;0.62;0.00;0.00;0.62;2.73;1.93;;;25.70;37.70;;;;;;2253319;61;20360;-66
2021/08/26 02:32:29;0.00;0.00;0.62;0.00;0.00;0.62;3.93;1.70;;;25.70;37.60;;;;;;2253361;61;20363;-65
2021/08/26 02:35:14;0.00;0.00;0.62;0.00;0.00;0.62;4.57;1.87;;;25.70;37.60;;;;;;2253704;61;20379;-63
2021/08/26 02:37:58;0.00;0.00;0.62;0.00;0.00;0.62;7.60;2.70;;;25.70;37.60;;;;;;2253395;61;20418;-64
2021/08/26 02:40:43;0.00;0.00;0.62;0.00;0.00;0.62;3.63;1.73;;;25.70;37.60;;;;;;2253757;61;20645;-65
2021/08/26 02:43:27;0.00;0.00;0.62;0.00;0.00;0.62;3.87;2.00;;;25.70;37.50;;;;;;2253525;61;20620;-66
2021/08/26 02:46:12;0.00;0.00;0.62;0.00;0.00;0.62;4.13;2.10;;;25.70;37.50;;;;;;2253068;61;20705;-62
2021/08/26 02:48:57;0.00;0.00;0.62;0.00;0.00;0.62;4.33;2.07;;;25.70;37.50;;;;;;2253691;61;20759;-61
2021/08/26 02:51:42;0.00;0.00;0.62;0.00;0.00;0.62;3.23;1.70;;;25.70;37.40;;;;;;2253143;61;20492;-65
2021/08/26 02:54:26;0.00;0.00;0.62;0.00;0.00;0.62;4.60;2.10;;;25.70;37.40;;;;;;2253177;61;20434;-62
2021/08/26 02:57:11;0.00;0.00;0.62;0.00;0.00;0.62;3.77;2.13;;;25.70;37.40;;;;;;2253596;61;20427;-64
2021/08/26 02:59:55;0.00;0.00;0.62;0.00;0.00;0.62;2.90;2.00;;;25.70;37.40;;;;;;2253149;61;20431;-63
2021/08/26 03:02:40;0.00;0.00;0.62;0.00;0.00;0.62;3.60;2.10;;;25.70;37.40;;;;;;2253390;61;20344;-64
2021/08/26 03:05:26;0.00;0.00;0.62;0.00;0.00;0.62;5.50;2.40;;;25.70;37.30;;;;;;2253453;61;20391;-64
2021/08/26 03:08:10;0.00;0.00;0.62;0.00;0.00;0.62;7.47;2.47;;;25.80;37.40;;;;;;2253052;61;20384;-64
2021/08/26 03:10:55;0.00;0.00;0.62;0.00;0.00;0.62;4.33;2.20;;;25.80;37.30;;;;;;2253811;61;20344;-64
2021/08/26 03:13:39;0.00;0.00;0.62;0.00;0.00;0.62;3.73;2.00;;;25.80;37.30;;;;;;2253033;61;20383;-65
2021/08/26 03:16:24;0.00;0.00;0.62;0.00;0.00;0.62;6.17;3.33;;;25.80;37.30;;;;;;2253287;61;20442;-64
2021/08/26 03:19:08;0.00;0.00;0.62;0.00;0.00;0.62;3.17;1.53;;;25.80;37.30;;;;;;2253547;61;20376;-66
2021/08/26 03:21:54;0.00;0.00;0.62;0.00;0.00;0.62;4.80;2.60;;;25.80;37.30;;;;;;2253117;61;20388;-63
2021/08/26 03:24:39;0.00;0.00;0.62;0.00;0.00;0.62;5.53;2.37;;;25.80;37.20;;;;;;2253359;61;20359;-66
2021/08/26 03:27:23;0.00;0.00;0.62;0.00;0.00;0.62;5.50;2.40;;;25.80;37.20;;;;;;2253183;61;20422;-63
2021/08/26 03:30:09;0.00;0.00;0.62;0.00;0.00;0.62;6.00;2.30;;;25.80;37.20;;;;;;2253006;61;20356;-63
2021/08/26 03:32:54;0.00;0.00;0.62;0.00;0.00;0.62;5.73;2.60;;;25.80;37.20;;;;;;2253382;61;20400;-64
2021/08/26 03:35:39;0.00;0.00;0.62;0.00;0.00;0.62;3.77;1.73;;;25.80;37.10;;;;;;2253000;61;20391;-63
2021/08/26 03:38:25;0.00;0.00;0.62;0.00;0.00;0.62;3.87;1.93;;;25.80;37.10;;;;;;2252836;61;20410;-64
2021/08/26 03:41:09;0.00;0.00;0.62;0.00;0.00;0.62;5.80;2.70;;;25.80;37.10;;;;;;2253509;61;20407;-64
2021/08/26 03:43:54;0.00;0.00;0.62;0.00;0.00;0.62;5.50;2.67;;;25.80;37.10;;;;;;2253034;61;20367;-65
2021/08/26 03:46:38;0.00;0.00;0.62;0.00;0.00;0.62;3.03;2.03;;;25.80;37.10;;;;;;2253077;61;20359;-64
2021/08/26 03:49:23;0.00;0.00;0.62;0.00;0.00;0.62;4.10;1.90;;;25.80;37.00;;;;;;2253408;61;20575;-65
2021/08/26 03:52:08;0.00;0.00;0.62;0.00;0.00;0.62;6.07;2.17;;;25.80;37.00;;;;;;2253162;61;20402;-61
2021/08/26 03:54:53;0.00;0.00;0.62;0.00;0.00;0.62;4.33;1.97;;;25.80;37.00;;;;;;2253262;61;20388;-66
2021/08/26 03:57:38;0.00;0.00;0.62;0.00;0.00;0.62;4.63;1.83;;;25.80;37.00;;;;;;2253636;61;20781;-62
2021/08/26 04:00:23;0.00;0.00;0.62;0.00;0.00;0.62;4.07;2.20;;;25.80;37.00;;;;;;2253953;61;20372;-64
2021/08/26 04:03:07;0.00;0.00;0.62;0.00;0.00;0.62;2.63;1.40;;;25.80;36.90;;;;;;2254180;61;20356;-64
2021/08/26 04:05:52;0.00;0.00;0.62;0.00;0.00;0.62;3.40;2.17;;;25.80;36.90;;;;;;2253634;61;20375;-65
2021/08/26 04:08:37;0.00;0.00;0.62;0.00;0.00;0.62;4.97;2.23;;;25.80;36.90;;;;;;2253858;61;20383;-61
2021/08/26 04:11:23;0.00;0.00;0.62;0.00;0.00;0.62;4.13;2.00;;;25.80;36.90;;;;;;2254104;61;20375;-64
2021/08/26 04:14:07;0.00;0.00;0.62;0.00;0.00;0.62;5.67;2.67;;;25.80;36.90;;;;;;2253906;61;20367;-61
2021/08/26 04:16:52;0.00;0.00;0.62;0.00;0.00;0.62;5.23;2.37;;;25.80;36.90;;;;;;2253943;61;20364;-62
2021/08/26 04:19:37;0.00;0.00;0.62;0.00;0.00;0.62;5.23;2.30;;;25.80;36.90;;;;;;2253931;61;20767;-65
2021/08/26 04:22:21;0.00;0.00;0.62;0.00;0.00;0.62;5.17;2.27;;;25.80;36.90;;;;;;2253710;61;20359;-67
2021/08/26 04:25:08;0.00;0.00;0.62;0.00;0.00;0.62;5.33;2.80;;;25.80;36.80;;;;;;2254229;61;20356;-63
2021/08/26 04:27:54;0.00;0.00;0.62;0.00;0.00;0.62;6.40;2.20;;;25.80;36.80;;;;;;2253517;61;20807;-63
2021/08/26 04:30:39;0.00;0.00;0.62;0.00;0.00;0.62;3.87;1.97;;;25.80;36.80;;;;;;2253439;61;20486;-63
2021/08/26 04:33:24;0.00;0.00;0.62;0.00;0.00;0.62;3.53;2.00;;;25.80;36.80;;;;;;2253958;61;20395;-64
2021/08/26 04:36:08;0.00;0.00;0.62;0.00;0.00;0.62;5.43;1.80;;;25.80;36.80;;;;;;2253105;61;20451;-62
2021/08/26 04:38:53;0.00;0.00;0.62;0.00;0.00;0.62;3.10;1.90;;;25.80;36.70;;;;;;2253812;61;20387;-62
2021/08/26 04:41:38;0.00;0.00;0.62;0.00;0.00;0.62;3.70;2.07;;;25.80;36.70;;;;;;2253964;61;20705;-64
2021/08/26 04:44:24;0.00;0.00;0.62;0.00;0.00;0.62;4.17;2.20;;;25.80;36.70;;;;;;2253582;61;20368;-65
2021/08/26 04:47:09;0.00;0.00;0.62;0.00;0.00;0.62;3.80;2.00;;;25.80;36.70;;;;;;2253947;61;20399;-63
2021/08/26 04:49:53;0.00;0.00;0.62;0.00;0.00;0.62;6.67;2.40;;;25.80;36.70;;;;;;2253563;61;20486;-64
2021/08/26 04:52:38;0.00;0.00;0.62;0.00;0.00;0.62;4.93;2.50;;;25.80;36.70;;;;;;2253585;61;20360;-65
2021/08/26 04:55:22;0.00;0.00;0.62;0.00;0.00;0.62;3.83;1.90;;;25.80;36.70;;;;;;2253892;61;20632;-65
2021/08/26 04:58:07;0.00;0.00;0.62;0.00;0.00;0.62;4.80;1.70;;;25.80;36.70;;;;;;2253463;61;20671;-66
2021/08/26 05:00:53;0.00;0.00;0.62;0.00;0.00;0.62;4.60;2.07;;;25.80;36.60;;;;;;2253759;61;20483;-65
2021/08/26 05:03:38;0.00;0.00;0.62;0.00;0.00;0.62;3.97;2.17;;;25.80;36.60;;;;;;2253704;61;20714;-63
2021/08/26 05:06:22;0.00;0.00;0.62;0.00;0.00;0.62;4.33;2.40;;;25.80;36.60;;;;;;2253340;61;20410;-64
2021/08/26 05:09:07;0.00;0.00;0.62;0.00;0.00;0.62;3.90;2.07;;;25.80;36.60;;;;;;2253928;61;20423;-65
2021/08/26 05:11:55;0.00;0.00;0.62;0.00;0.00;0.62;5.03;2.27;;;25.80;36.60;;;;;;2253700;61;20400;-64
2021/08/26 05:14:40;0.00;0.00;0.62;0.00;0.00;0.62;5.03;2.30;;;25.80;36.60;;;;;;2253441;61;20484;-63
2021/08/26 05:17:27;0.00;0.00;0.62;0.00;0.00;0.62;5.60;1.90;;;25.80;36.60;;;;;;2253909;61;20391;-64
2021/08/26 05:20:13;0.00;0.00;0.62;0.00;0.00;0.62;4.43;2.00;;;25.80;36.60;;;;;;2253419;61;20375;-64
2021/08/26 05:22:58;0.00;0.00;0.62;0.00;0.00;0.62;4.10;2.37;;;25.80;36.60;;;;;;2253796;61;20580;-64
2021/08/26 05:25:42;0.00;0.00;0.62;0.00;0.00;0.62;2.93;2.10;;;25.80;36.60;;;;;;2253833;61;20581;-64
2021/08/26 05:28:27;0.00;0.00;0.62;0.00;0.00;0.62;6.00;2.33;;;25.80;36.60;;;;;;2253411;61;20411;-61
2021/08/26 05:31:12;0.00;0.00;0.62;0.00;0.00;0.62;7.77;2.97;;;25.80;36.60;;;;;;2253838;61;20443;-66
2021/08/26 05:33:58;0.00;0.00;0.62;0.00;0.00;0.62;8.20;3.13;;;25.80;36.60;;;;;;2253471;61;20356;-62
2021/08/26 05:36:42;0.00;0.00;0.62;0.00;0.00;0.62;5.20;2.83;;;25.80;36.60;;;;;;2253410;61;20800;-65
2021/08/26 05:39:27;0.00;0.00;0.62;0.00;0.00;0.62;3.90;2.30;;;25.80;36.50;;;;;;2253771;61;20372;-63
2021/08/26 05:42:11;0.00;0.00;0.62;0.00;0.00;0.62;7.40;3.13;;;25.80;36.50;;;;;;2253261;61;20399;-63
2021/08/26 05:44:56;0.00;0.00;0.62;0.00;0.00;0.62;4.50;2.47;;;25.80;36.60;;;;;;2253479;61;20403;-62
2021/08/26 05:47:40;0.00;0.00;0.62;0.00;0.00;0.62;6.67;2.90;;;25.80;36.60;;;;;;2253710;61;20378;-61
2021/08/26 05:50:26;0.00;0.00;0.62;0.00;0.00;0.62;3.83;2.50;;;25.80;36.60;;;;;;2253658;61;20475;-64
2021/08/26 05:53:10;0.00;0.00;0.62;0.00;0.00;0.62;2.97;2.20;;;25.80;36.60;;;;;;2253460;61;20549;-66
2021/08/26 05:55:55;0.00;0.00;0.62;0.00;0.00;0.62;6.30;2.70;;;25.80;36.60;;;;;;2253136;61;20794;-63
2021/08/26 05:58:40;0.00;0.00;0.62;0.00;0.00;0.62;6.50;2.60;;;25.80;36.60;;;;;;2253212;61;20771;-62
2021/08/26 06:01:27;0.00;0.00;0.62;0.00;0.00;0.62;4.10;2.67;;;25.80;36.70;;;;;;2254135;61;20423;-61
2021/08/26 06:04:12;0.00;0.00;0.62;0.00;0.00;0.62;4.07;2.27;;;25.80;36.70;;;;;;2253440;61;20411;-64
2021/08/26 06:06:58;0.00;0.00;0.62;0.00;0.00;0.62;5.07;2.70;;;25.80;36.70;;;;;;2253604;61;20364;-63
2021/08/26 06:09:42;0.00;0.00;0.62;0.00;0.00;0.62;5.90;2.03;;;25.80;36.70;;;;;;2254048;61;20364;-65
2021/08/26 06:12:27;0.00;0.00;0.62;0.00;0.00;0.62;6.70;2.23;;;25.90;36.80;;;;;;2253704;61;20387;-65
2021/08/26 06:15:15;0.00;0.00;0.62;0.00;0.00;0.62;5.70;2.00;;;25.80;36.70;;;;;;2253754;61;20383;-63
2021/08/26 06:18:00;0.00;0.00;0.62;0.00;0.00;0.62;4.70;2.50;;;25.90;36.70;;;;;;2253607;61;20383;-65
2021/08/26 06:20:44;0.00;0.00;0.62;0.00;0.00;0.62;6.17;2.77;;;25.90;36.80;;;;;;2252927;61;20402;-65
2021/08/26 06:23:30;0.00;0.00;0.62;0.00;0.00;0.62;7.43;2.30;;;25.90;36.70;;;;;;2253960;61;20395;-65
2021/08/26 06:26:15;0.00;0.00;0.62;0.00;0.00;0.62;4.40;2.47;;;25.90;36.70;;;;;;2253343;61;20724;-66
2021/08/26 06:28:59;0.00;0.00;0.62;0.00;0.00;0.62;5.27;2.60;;;25.90;36.70;;;;;;2253548;61;20431;-62
2021/08/26 06:31:44;0.00;0.00;0.62;0.00;0.00;0.62;4.33;2.00;;;25.90;36.70;;;;;;2253910;61;20612;-61
2021/08/26 06:34:29;0.00;0.00;0.62;0.00;0.00;0.62;7.57;2.60;;;25.90;36.70;;;;;;2253482;61;20364;-65
2021/08/26 06:37:14;0.00;0.00;0.62;0.00;0.00;0.62;3.83;2.37;;;25.90;36.70;;;;;;2253391;61;20755;-61
2021/08/26 06:40:00;0.00;0.00;0.62;0.00;0.00;0.62;6.07;2.40;;;25.90;36.70;;;;;;2253738;61;20748;-64
2021/08/26 06:42:44;0.00;0.00;0.62;0.00;0.00;0.62;3.73;2.17;;;26.00;36.70;;;;;;2253283;61;20570;-64
2021/08/26 06:45:30;0.00;0.00;0.62;0.00;0.00;0.62;4.83;2.60;;;25.90;36.70;;;;;;2254020;61;20395;-64
2021/08/26 06:48:14;0.00;0.00;0.62;0.00;0.00;0.62;4.60;3.00;;;26.00;36.80;;;;;;2253311;61;20383;-64
2021/08/26 06:50:58;0.00;0.00;0.62;0.00;0.00;0.62;6.47;1.80;;;26.00;36.70;;;;;;2253516;61;20643;-64
2021/08/26 06:53:43;0.00;0.00;0.62;0.00;0.00;0.62;6.30;2.83;;;26.00;36.70;;;;;;2253823;61;20403;-66
2021/08/26 06:56:29;0.00;0.00;0.62;0.00;0.00;0.62;4.73;3.00;;;26.00;36.70;;;;;;2253193;61;20387;-67
2021/08/26 06:59:13;0.00;0.00;0.62;0.00;0.00;0.62;4.50;2.60;;;26.00;36.70;;;;;;2253522;61;20391;-62
2021/08/26 07:01:58;0.00;0.00;0.62;0.00;0.00;0.62;4.67;2.77;;;26.00;36.70;;;;;;2253627;61;20403;-64
2021/08/26 07:04:42;0.00;0.00;0.62;0.00;0.00;0.62;8.67;3.13;;;26.00;36.70;;;;;;2252870;61;20422;-64
2021/08/26 07:07:27;0.00;0.00;0.62;0.00;0.00;0.62;6.23;2.30;;;26.00;36.60;;;;;;2253669;61;20439;-64
2021/08/26 07:10:11;0.00;0.00;0.62;0.00;0.00;0.62;5.70;2.60;;;26.00;36.60;;;;;;2253524;61;20387;-61
2021/08/26 07:12:57;0.00;0.00;0.62;0.00;0.00;0.62;9.13;2.70;;;26.00;36.70;;;;;;2253250;61;20376;-61
2021/08/26 07:15:42;0.00;0.00;0.62;0.00;0.00;0.62;7.50;3.10;;;26.00;36.60;;;;;;2253826;61;20387;-61
2021/08/26 07:18:28;0.00;0.00;0.62;0.00;0.00;0.62;5.40;2.10;;;26.00;36.60;;;;;;2253247;61;20415;-62
2021/08/26 07:21:13;0.00;0.00;0.62;0.00;0.00;0.62;6.93;3.50;;;26.10;36.70;;;;;;2253297;61;20347;-63
2021/08/26 07:23:57;0.00;0.00;0.62;0.00;0.00;0.62;5.73;2.80;;;26.10;36.70;;;;;;2253854;61;20407;-64
2021/08/26 07:26:43;0.00;0.00;0.62;0.00;0.00;0.62;5.63;3.00;;;26.10;36.70;;;;;;2253392;61;20351;-65
2021/08/26 07:29:28;0.00;0.00;0.62;0.00;0.00;0.62;3.23;2.20;;;26.10;36.70;;;;;;2253230;61;20407;-63
2021/08/26 07:32:13;0.00;0.00;0.62;0.00;0.00;0.62;5.23;3.23;;;26.10;36.70;;;;;;2251944;61;20367;-62
2021/08/26 07:34:58;0.00;0.00;0.62;0.00;0.00;0.62;6.50;3.13;;;26.10;36.70;;;;;;2253323;61;20387;-65
2021/08/26 07:37:43;0.00;0.00;0.62;0.00;0.00;0.62;4.90;3.13;;;26.10;36.70;;;;;;2253708;61;20379;-61
2021/08/26 07:40:27;0.00;0.00;0.62;0.00;0.00;0.62;9.53;4.00;;;26.10;36.70;;;;;;2253480;61;20723;-62
2021/08/26 07:43:14;0.00;0.00;0.62;0.00;0.00;0.62;5.87;3.03;;;26.10;36.70;;;;;;2253502;61;20399;-63
2021/08/26 07:45:59;0.00;0.00;0.62;0.00;0.00;0.62;7.77;2.97;;;26.10;36.70;;;;;;2253488;61;20359;-62
2021/08/26 07:48:44;0.00;0.00;0.62;0.00;0.00;0.62;6.40;2.70;;;26.10;36.70;;;;;;2253655;61;20380;-63
2021/08/26 07:51:28;0.00;0.00;0.62;0.00;0.00;0.62;7.43;3.40;;;26.10;36.70;;;;;;2253642;61;20415;-61
2021/08/26 07:54:13;0.00;0.00;0.62;0.00;0.00;0.62;5.20;3.00;;;26.10;36.70;;;;;;2253179;61;20354;-66
2021/08/26 07:56:58;0.00;0.00;0.62;0.00;0.00;0.62;7.13;3.53;;;26.10;36.80;;;;;;2253358;61;20375;-64
2021/08/26 07:59:42;0.00;0.00;0.62;0.00;0.00;0.62;6.03;3.07;;;26.10;36.70;;;;;;2253751;61;20356;-65
2021/08/26 08:02:28;0.00;0.00;0.62;0.00;0.00;0.62;7.87;4.00;;;26.20;36.80;;;;;;2253460;61;20398;-64
2021/08/26 08:05:13;0.00;0.00;0.62;0.00;0.00;0.62;5.23;3.10;;;26.10;36.70;;;;;;2253490;61;20367;-62
2021/08/26 08:07:57;0.00;0.00;0.62;0.00;0.00;0.62;8.97;3.83;;;26.10;36.90;;;;;;2253466;61;20476;-63
2021/08/26 08:10:42;0.00;0.00;0.62;0.00;0.00;0.62;6.70;3.40;;;26.10;36.70;;;;;;2253441;61;20379;-64
2021/08/26 08:13:26;0.00;0.00;0.62;0.00;0.00;0.62;11.50;3.63;;;26.20;36.80;;;;;;2253204;61;20399;-64
2021/08/26 08:16:11;0.00;0.00;0.62;0.00;0.00;0.62;8.03;3.07;;;26.20;36.80;;;;;;2251589;61;20443;-64
2021/08/26 08:18:57;0.00;0.00;0.62;0.00;0.00;0.62;8.57;3.87;;;26.20;36.80;;;;;;2253076;61;20388;-64
2021/08/26 08:21:42;0.00;0.00;0.62;0.00;0.00;0.62;10.13;2.90;;;26.20;36.80;;;;;;2253583;61;20415;-62
2021/08/26 08:24:28;0.00;0.00;0.62;0.00;0.00;0.62;7.97;3.97;;;26.20;36.80;;;;;;2253251;61;20608;-62
2021/08/26 08:27:12;0.00;0.00;0.62;0.00;0.00;0.62;5.43;3.43;;;26.20;36.80;;;;;;2253249;61;20371;-63
2021/08/26 08:29:56;0.00;0.00;0.62;0.00;0.00;0.62;7.30;3.80;;;26.20;36.80;;;;;;2253289;61;20368;-66
2021/08/26 08:32:41;0.00;0.00;0.62;0.00;0.00;0.62;7.03;3.50;;;26.20;36.80;;;;;;2253307;61;20397;-65
2021/08/26 08:35:27;0.00;0.00;0.62;0.00;0.00;0.62;7.53;3.83;;;26.20;36.70;;;;;;2248160;61;20381;-66
2021/08/26 08:38:13;0.00;0.00;0.62;0.00;0.00;0.62;7.10;3.60;;;26.20;36.70;;;;;;2248602;61;20396;-60
2021/08/26 08:40:58;0.00;0.00;0.62;0.00;0.00;0.62;9.50;3.70;;;26.20;36.80;;;;;;2248837;61;20456;-64
2021/08/26 08:43:43;0.00;0.00;0.62;0.00;0.00;0.62;5.23;3.00;;;26.30;36.90;;;;;;2477842;53;20393;-63
2021/08/26 08:46:28;0.00;0.00;0.62;0.00;0.00;0.62;6.17;3.23;;;26.20;36.80;;;;;;2248604;61;20589;-62
2021/08/26 08:49:13;0.00;0.00;0.62;0.00;0.00;0.62;5.33;2.87;;;26.30;36.80;;;;;;2249943;61;20404;-65
2021/08/26 08:52:01;0.00;0.00;0.62;0.00;0.00;0.62;5.03;3.23;;;26.30;36.90;;;;;;2364407;53;20768;-62
2021/08/26 08:54:46;0.00;0.00;0.62;0.00;0.00;0.62;9.23;3.67;;;26.30;37.50;;;;;;2249877;61;20768;-62
2021/08/26 08:57:31;0.00;0.00;0.62;0.00;0.00;0.62;6.50;3.90;;;26.30;36.80;;;;;;2249651;61;20397;-60
2021/08/26 09:00:18;0.00;0.00;0.62;0.00;0.00;0.62;5.97;3.37;;;26.30;36.80;;;;;;2249886;61;20738;-64
2021/08/26 09:03:04;0.00;0.00;0.62;0.00;0.00;0.62;5.97;3.30;;;26.40;36.90;;;;;;2420191;53;20364;-61
2021/08/26 09:05:54;0.00;0.00;0.62;0.00;0.00;0.62;7.43;4.00;;;26.40;36.80;;;;;;2250100;61;20364;-63
2021/08/26 09:08:40;0.00;0.00;0.62;0.00;0.00;0.62;9.53;4.10;;;26.40;36.80;;;;;;2249702;61;20388;-63
2021/08/26 09:11:27;0.00;0.00;0.62;0.00;0.00;0.62;4.40;2.67;;;26.40;36.80;;;;;;2247868;61;20392;-62
2021/08/26 09:14:13;0.00;0.00;0.62;0.00;0.00;0.62;10.23;3.70;;;26.40;36.80;;;;;;2245939;61;20629;-61
2021/08/26 09:16:58;0.00;0.00;0.62;0.00;0.00;0.62;7.43;3.90;;;26.50;37.50;;;;;;2248012;61;20382;-63
2021/08/26 09:19:44;0.00;0.00;0.62;0.00;0.00;0.62;6.10;3.70;;;26.50;36.80;;;;;;2245912;61;20764;-61
2021/08/26 09:22:31;0.00;0.00;0.62;0.00;0.00;0.62;8.07;4.70;;;26.50;36.80;;;;;;2245962;61;20481;-61
2021/08/26 09:25:25;0.00;0.00;0.62;0.00;0.00;0.62;3.80;2.83;;;26.50;36.70;;;;;;2246020;61;20421;-64
2021/08/26 09:28:25;0.00;0.00;0.62;0.00;0.00;0.62;4.97;3.13;;;26.50;36.70;;;;;;2245957;61;20644;-61
2021/08/26 09:31:14;0.00;0.00;0.62;0.00;0.00;0.62;6.93;4.07;;;26.60;36.70;;;;;;2245856;61;20374;-62
2021/08/26 09:34:01;0.00;0.00;0.62;0.00;0.00;0.62;5.60;3.30;;;26.60;36.70;;;;;;2245807;61;20426;-64
2021/08/26 09:36:55;0.00;0.00;0.62;0.00;0.00;0.62;5.17;3.27;;;26.60;36.60;;;;;;2245895;61;20377;-64
2021/08/26 09:39:40;0.00;0.00;0.62;0.00;0.00;0.62;7.43;3.63;;;26.60;36.60;;;;;;2245967;61;20431;-66
2021/08/26 09:42:28;0.00;0.00;0.62;0.00;0.00;0.62;5.73;3.37;;;26.60;36.60;;;;;;2246107;61;20357;-59
2021/08/26 09:45:20;0.00;0.00;0.62;0.00;0.00;0.62;6.87;3.60;;;26.60;37.20;;;;;;2245489;61;20362;-65
2021/08/26 09:48:10;0.00;0.00;0.62;0.00;0.00;0.62;5.60;3.77;;;26.70;36.60;;;;;;2245592;61;20424;-60
2021/08/26 09:50:55;0.00;0.00;0.62;0.00;0.00;0.62;7.10;4.00;;;26.70;36.60;;;;;;2246048;61;20361;-60
2021/08/26 09:53:40;0.00;0.00;0.62;0.00;0.00;0.62;3.40;2.80;;;26.70;36.60;;;;;;2245482;61;20569;-64
2021/08/26 09:56:37;0.00;0.00;0.62;0.00;0.00;0.62;5.83;3.27;;;26.70;36.60;;;;;;2244558;61;20413;-62
2021/08/26 09:59:47;0.00;0.00;0.62;0.00;0.00;0.62;4.93;3.00;;;26.70;36.50;;;;;;2243641;61;20414;-62
2021/08/26 10:02:32;0.00;0.00;0.62;0.00;0.00;0.62;7.47;3.73;;;26.80;36.60;;;;;;2245230;61;20444;-63
2021/08/26 10:05:21;0.00;0.00;0.62;0.00;0.00;0.62;7.63;3.30;;;26.80;36.60;;;;;;2246078;56;20369;31
2021/08/26 10:08:08;0.00;0.00;0.62;0.00;0.00;0.62;4.10;3.00;;;26.80;36.60;;;;;;2480351;53;20397;-61
2021/08/26 10:10:54;0.00;0.00;0.62;0.00;0.00;0.62;5.63;3.33;;;26.80;36.50;;;;;;2246012;61;20703;-62
2021/08/26 10:13:39;0.00;0.00;0.62;0.00;0.00;0.62;5.77;3.40;;;26.80;36.50;;;;;;2245281;61;20595;-63
2021/08/26 10:16:26;0.00;0.00;0.62;0.00;0.00;0.62;5.73;3.50;;;26.90;36.50;;;;;;2245311;61;20394;-63
2021/08/26 10:19:15;0.00;0.00;0.62;0.00;0.00;0.62;6.43;4.07;;;26.90;36.40;;;;;;2246015;61;20458;-64
2021/08/26 10:21:59;0.00;0.00;0.62;0.00;0.00;0.62;5.07;3.80;;;26.90;36.30;;;;;;2245068;61;20381;-65
2021/08/26 10:24:44;0.00;0.00;0.62;0.00;0.00;0.62;9.97;3.70;;;26.90;36.30;;;;;;2246165;61;20725;-63
2021/08/26 10:27:31;0.00;0.00;0.62;0.00;0.00;0.62;7.90;4.13;;;26.90;36.30;;;;;;2245805;61;20433;-64
2021/08/26 10:30:27;0.00;0.00;0.62;0.00;0.00;0.62;6.63;4.00;;;26.90;36.30;;;;;;2245124;61;20357;-60
2021/08/26 10:33:16;0.00;0.00;0.62;0.00;0.00;0.62;7.37;3.50;;;26.90;36.30;;;;;;2245886;61;20638;-63
2021/08/26 10:36:05;0.00;0.00;0.62;0.00;0.00;0.62;6.10;3.10;;;26.90;36.30;;;;;;2245301;61;20389;-61
2021/08/26 10:38:49;0.00;0.00;0.62;0.00;0.00;0.62;6.33;3.60;;;26.90;37.00;;;;;;2245458;61;20393;-62
2021/08/26 10:41:34;0.00;0.00;0.62;0.00;0.00;0.62;5.10;3.47;;;26.90;36.40;;;;;;2245801;61;20437;-65
2021/08/26 10:44:19;0.00;0.00;0.62;0.00;0.00;0.62;7.87;3.50;;;26.90;36.40;;;;;;2244915;61;20785;-61
2021/08/26 10:47:04;0.00;0.00;0.62;0.00;0.00;0.62;5.30;3.20;;;26.90;36.50;;;;;;2245866;61;20357;-62
2021/08/26 10:50:18;0.00;0.00;0.62;0.00;0.00;0.62;7.70;3.37;;;26.90;36.40;;;;;;2245852;61;20357;-66
2021/08/26 10:53:05;0.00;0.00;0.62;0.00;0.00;0.62;5.53;2.80;;;26.90;36.30;;;;;;2245218;61;20718;-63
2021/08/26 10:55:52;0.00;0.00;0.62;0.00;0.00;0.62;5.43;3.00;;;26.90;36.00;;;;;;2245654;61;20428;-63
2021/08/26 10:58:37;0.00;0.00;0.62;0.00;0.00;0.62;4.77;3.17;;;26.90;36.00;;;;;;2245536;61;20604;-61